sensor_id;sensor_type;location;lat;lon;timestamp;temperature;humidity
64939;DHT22;51453;47.738;7.420;2024-03-02T00:01:12;5.40;99.90
64939;DHT22;51453;47.738;7.420;2024-03-02T00:03:38;5.50;99.90
64939;DHT22;51453;47.738;7.420;2024-03-02T00:06:04;5.50;99.90
64939;DHT22;51453;47.738;7.420;2024-03-02T00:08:30;5.60;99.90
64939;DHT22;51453;47.738;7.420;2024-03-02T00:11:00;5.50;99.90
64939;DHT22;51453;47.738;7.420;2024-03-02T00:13:26;5.60;99.90
64939;DHT22;51453;47.738;7.420;2024-03-02T00:15:53;5.60;99.90
64939;DHT22;51453;47.738;7.420;2024-03-02T00:18:39;5.60;99.90
64939;DHT22;51453;47.738;7.420;2024-03-02T00:21:07;5.50;99.90
64939;DHT22;51453;47.738;7.420;2024-03-02T00:23:37;5.50;99.90
64939;DHT22;51453;47.738;7.420;2024-03-02T00:26:04;5.40;99.90
64939;DHT22;51453;47.738;7.420;2024-03-02T00:28:35;5.50;99.90
64939;DHT22;51453;47.738;7.420;2024-03-02T00:31:05;5.50;99.90
64939;DHT22;51453;47.738;7.420;2024-03-02T00:33:35;5.50;99.90
64939;DHT22;51453;47.738;7.420;2024-03-02T00:36:02;5.40;99.90
64939;DHT22;51453;47.738;7.420;2024-03-02T00:38:32;5.40;99.90
64939;DHT22;51453;47.738;7.420;2024-03-02T00:41:07;5.50;99.90
64939;DHT22;51453;47.738;7.420;2024-03-02T00:43:41;5.50;99.90
64939;DHT22;51453;47.738;7.420;2024-03-02T00:46:08;5.50;99.90
64939;DHT22;51453;47.738;7.420;2024-03-02T00:48:33;5.50;99.90
64939;DHT22;51453;47.738;7.420;2024-03-02T00:51:05;5.40;99.90
64939;DHT22;51453;47.738;7.420;2024-03-02T00:53:32;5.40;99.90
64939;DHT22;51453;47.738;7.420;2024-03-02T00:55:59;5.40;99.90
64939;DHT22;51453;47.738;7.420;2024-03-02T00:58:25;5.50;99.90
64939;DHT22;51453;47.738;7.420;2024-03-02T01:00:51;5.40;99.90
64939;DHT22;51453;47.738;7.420;2024-03-02T01:03:16;5.30;99.90
64939;DHT22;51453;47.738;7.420;2024-03-02T01:05:42;5.30;99.90
64939;DHT22;51453;47.738;7.420;2024-03-02T01:08:09;5.40;99.90
64939;DHT22;51453;47.738;7.420;2024-03-02T01:10:35;5.40;99.90
64939;DHT22;51453;47.738;7.420;2024-03-02T01:13:01;5.30;99.90
64939;DHT22;51453;47.738;7.420;2024-03-02T01:15:27;5.30;99.90
64939;DHT22;51453;47.738;7.420;2024-03-02T01:17:52;5.30;99.90
64939;DHT22;51453;47.738;7.420;2024-03-02T01:20:18;5.20;99.90
64939;DHT22;51453;47.738;7.420;2024-03-02T01:22:44;5.20;99.90
64939;DHT22;51453;47.738;7.420;2024-03-02T01:25:09;5.20;99.90
64939;DHT22;51453;47.738;7.420;2024-03-02T01:27:35;5.20;99.90
64939;DHT22;51453;47.738;7.420;2024-03-02T01:30:01;5.10;99.90
64939;DHT22;51453;47.738;7.420;2024-03-02T01:32:26;5.10;99.90
64939;DHT22;51453;47.738;7.420;2024-03-02T01:34:52;5.10;99.90
64939;DHT22;51453;47.738;7.420;2024-03-02T01:37:18;5.10;99.90
64939;DHT22;51453;47.738;7.420;2024-03-02T01:39:43;5.10;99.90
64939;DHT22;51453;47.738;7.420;2024-03-02T01:42:09;5.10;99.90
64939;DHT22;51453;47.738;7.420;2024-03-02T01:44:36;5.10;99.90
64939;DHT22;51453;47.738;7.420;2024-03-02T01:47:02;5.10;99.90
64939;DHT22;51453;47.738;7.420;2024-03-02T01:49:27;5.10;99.90
64939;DHT22;51453;47.738;7.420;2024-03-02T01:51:53;5.10;99.90
64939;DHT22;51453;47.738;7.420;2024-03-02T01:54:19;5.00;99.90
64939;DHT22;51453;47.738;7.420;2024-03-02T01:56:45;5.10;99.90
64939;DHT22;51453;47.738;7.420;2024-03-02T01:59:11;5.10;99.90
64939;DHT22;51453;47.738;7.420;2024-03-02T02:01:38;5.10;99.90
64939;DHT22;51453;47.738;7.420;2024-03-02T02:04:04;5.10;99.90
64939;DHT22;51453;47.738;7.420;2024-03-02T02:06:32;5.10;99.90
64939;DHT22;51453;47.738;7.420;2024-03-02T02:08:57;5.10;99.90
64939;DHT22;51453;47.738;7.420;2024-03-02T02:11:24;5.10;99.90
64939;DHT22;51453;47.738;7.420;2024-03-02T02:13:49;5.10;99.90
64939;DHT22;51453;47.738;7.420;2024-03-02T02:16:15;5.20;99.90
64939;DHT22;51453;47.738;7.420;2024-03-02T02:18:41;5.10;99.90
64939;DHT22;51453;47.738;7.420;2024-03-02T02:21:06;5.20;99.90
64939;DHT22;51453;47.738;7.420;2024-03-02T02:23:32;5.20;99.90
64939;DHT22;51453;47.738;7.420;2024-03-02T02:25:58;5.20;99.90
64939;DHT22;51453;47.738;7.420;2024-03-02T02:28:23;5.20;99.90
64939;DHT22;51453;47.738;7.420;2024-03-02T02:30:49;5.20;99.90
64939;DHT22;51453;47.738;7.420;2024-03-02T02:33:15;5.20;99.90
64939;DHT22;51453;47.738;7.420;2024-03-02T02:35:40;5.20;99.90
64939;DHT22;51453;47.738;7.420;2024-03-02T02:38:06;5.20;99.90
64939;DHT22;51453;47.738;7.420;2024-03-02T02:40:32;5.20;99.90
64939;DHT22;51453;47.738;7.420;2024-03-02T02:42:58;5.20;99.90
64939;DHT22;51453;47.738;7.420;2024-03-02T02:45:26;5.20;99.90
64939;DHT22;51453;47.738;7.420;2024-03-02T02:47:52;5.20;99.90
64939;DHT22;51453;47.738;7.420;2024-03-02T02:50:18;5.10;99.90
64939;DHT22;51453;47.738;7.420;2024-03-02T02:52:44;5.10;99.90
64939;DHT22;51453;47.738;7.420;2024-03-02T02:55:13;5.10;99.90
64939;DHT22;51453;47.738;7.420;2024-03-02T02:57:40;5.10;99.90
64939;DHT22;51453;47.738;7.420;2024-03-02T03:00:09;5.00;99.90
64939;DHT22;51453;47.738;7.420;2024-03-02T03:02:42;5.00;99.90
64939;DHT22;51453;47.738;7.420;2024-03-02T03:05:13;5.00;99.90
64939;DHT22;51453;47.738;7.420;2024-03-02T03:07:40;5.00;99.90
64939;DHT22;51453;47.738;7.420;2024-03-02T03:10:07;5.00;99.90
64939;DHT22;51453;47.738;7.420;2024-03-02T03:12:33;5.00;99.90
64939;DHT22;51453;47.738;7.420;2024-03-02T03:14:59;5.00;99.90
64939;DHT22;51453;47.738;7.420;2024-03-02T03:17:25;5.00;99.90
64939;DHT22;51453;47.738;7.420;2024-03-02T03:19:51;5.00;99.90
64939;DHT22;51453;47.738;7.420;2024-03-02T03:22:18;4.90;99.90
64939;DHT22;51453;47.738;7.420;2024-03-02T03:24:44;5.00;99.90
64939;DHT22;51453;47.738;7.420;2024-03-02T03:27:10;5.10;99.90
64939;DHT22;51453;47.738;7.420;2024-03-02T03:29:39;5.10;99.90
64939;DHT22;51453;47.738;7.420;2024-03-02T03:32:05;5.00;99.90
64939;DHT22;51453;47.738;7.420;2024-03-02T03:34:35;5.10;99.90
64939;DHT22;51453;47.738;7.420;2024-03-02T03:37:01;5.00;99.90
64939;DHT22;51453;47.738;7.420;2024-03-02T03:39:26;4.90;99.90
64939;DHT22;51453;47.738;7.420;2024-03-02T03:41:52;4.90;99.90
64939;DHT22;51453;47.738;7.420;2024-03-02T03:44:18;5.00;99.90
64939;DHT22;51453;47.738;7.420;2024-03-02T03:46:43;5.10;99.90
64939;DHT22;51453;47.738;7.420;2024-03-02T03:49:09;5.10;99.90
64939;DHT22;51453;47.738;7.420;2024-03-02T03:51:34;5.10;99.90
64939;DHT22;51453;47.738;7.420;2024-03-02T03:54:01;5.00;99.90
64939;DHT22;51453;47.738;7.420;2024-03-02T03:56:26;5.00;99.90
64939;DHT22;51453;47.738;7.420;2024-03-02T03:58:52;5.00;99.90
64939;DHT22;51453;47.738;7.420;2024-03-02T04:01:18;5.00;99.90
64939;DHT22;51453;47.738;7.420;2024-03-02T04:03:44;5.00;99.90
64939;DHT22;51453;47.738;7.420;2024-03-02T04:06:09;5.00;99.90
64939;DHT22;51453;47.738;7.420;2024-03-02T04:08:35;5.00;99.90
64939;DHT22;51453;47.738;7.420;2024-03-02T04:11:01;4.90;99.90
64939;DHT22;51453;47.738;7.420;2024-03-02T04:13:28;4.90;99.90
64939;DHT22;51453;47.738;7.420;2024-03-02T04:15:54;4.90;99.90
64939;DHT22;51453;47.738;7.420;2024-03-02T04:18:19;5.00;99.90
64939;DHT22;51453;47.738;7.420;2024-03-02T04:20:45;5.10;99.90
64939;DHT22;51453;47.738;7.420;2024-03-02T04:23:10;5.10;99.90
64939;DHT22;51453;47.738;7.420;2024-03-02T04:25:36;5.10;99.90
64939;DHT22;51453;47.738;7.420;2024-03-02T04:28:02;5.20;99.90
64939;DHT22;51453;47.738;7.420;2024-03-02T04:30:27;5.20;99.90
64939;DHT22;51453;47.738;7.420;2024-03-02T04:32:53;5.10;99.90
64939;DHT22;51453;47.738;7.420;2024-03-02T04:35:19;5.10;99.90
64939;DHT22;51453;47.738;7.420;2024-03-02T04:37:44;5.10;99.90
64939;DHT22;51453;47.738;7.420;2024-03-02T04:40:10;5.10;99.90
64939;DHT22;51453;47.738;7.420;2024-03-02T04:42:36;5.10;99.90
64939;DHT22;51453;47.738;7.420;2024-03-02T04:45:02;5.10;99.90
64939;DHT22;51453;47.738;7.420;2024-03-02T04:47:28;5.10;99.90
64939;DHT22;51453;47.738;7.420;2024-03-02T04:49:54;5.10;99.90
64939;DHT22;51453;47.738;7.420;2024-03-02T04:52:19;5.00;99.90
64939;DHT22;51453;47.738;7.420;2024-03-02T04:54:45;5.10;99.90
64939;DHT22;51453;47.738;7.420;2024-03-02T04:57:29;5.00;99.90
64939;DHT22;51453;47.738;7.420;2024-03-02T04:59:54;5.10;99.90
64939;DHT22;51453;47.738;7.420;2024-03-02T05:02:20;5.10;99.90
64939;DHT22;51453;47.738;7.420;2024-03-02T05:04:45;5.10;99.90
64939;DHT22;51453;47.738;7.420;2024-03-02T05:07:11;5.10;99.90
64939;DHT22;51453;47.738;7.420;2024-03-02T05:09:37;5.00;99.90
64939;DHT22;51453;47.738;7.420;2024-03-02T05:12:03;5.00;99.90
64939;DHT22;51453;47.738;7.420;2024-03-02T05:14:47;5.00;99.90
64939;DHT22;51453;47.738;7.420;2024-03-02T05:17:12;5.10;99.90
64939;DHT22;51453;47.738;7.420;2024-03-02T05:19:38;5.00;99.90
64939;DHT22;51453;47.738;7.420;2024-03-02T05:22:04;4.90;99.90
64939;DHT22;51453;47.738;7.420;2024-03-02T05:24:30;5.00;99.90
64939;DHT22;51453;47.738;7.420;2024-03-02T05:26:55;4.90;99.90
64939;DHT22;51453;47.738;7.420;2024-03-02T05:29:21;4.90;99.90
64939;DHT22;51453;47.738;7.420;2024-03-02T05:31:47;5.00;99.90
64939;DHT22;51453;47.738;7.420;2024-03-02T05:34:13;5.00;99.90
64939;DHT22;51453;47.738;7.420;2024-03-02T05:36:38;5.00;99.90
64939;DHT22;51453;47.738;7.420;2024-03-02T05:39:05;5.00;99.90
64939;DHT22;51453;47.738;7.420;2024-03-02T05:41:32;5.00;99.90
64939;DHT22;51453;47.738;7.420;2024-03-02T05:43:57;5.10;99.90
64939;DHT22;51453;47.738;7.420;2024-03-02T05:46:23;5.10;99.90
64939;DHT22;51453;47.738;7.420;2024-03-02T05:48:49;5.10;99.90
64939;DHT22;51453;47.738;7.420;2024-03-02T05:51:14;5.00;99.90
64939;DHT22;51453;47.738;7.420;2024-03-02T05:53:40;5.00;99.90
64939;DHT22;51453;47.738;7.420;2024-03-02T05:56:06;5.00;99.90
64939;DHT22;51453;47.738;7.420;2024-03-02T05:58:32;5.10;99.90
64939;DHT22;51453;47.738;7.420;2024-03-02T06:01:18;5.10;99.90
64939;DHT22;51453;47.738;7.420;2024-03-02T06:03:44;5.10;99.90
64939;DHT22;51453;47.738;7.420;2024-03-02T06:06:10;5.00;99.90
64939;DHT22;51453;47.738;7.420;2024-03-02T06:08:35;5.00;99.90
64939;DHT22;51453;47.738;7.420;2024-03-02T06:38:27;5.10;99.90
64939;DHT22;51453;47.738;7.420;2024-03-02T06:40:53;5.20;99.90
64939;DHT22;51453;47.738;7.420;2024-03-02T06:43:19;5.30;99.90
64939;DHT22;51453;47.738;7.420;2024-03-02T06:45:49;5.40;99.90
64939;DHT22;51453;47.738;7.420;2024-03-02T06:48:14;5.30;99.90
64939;DHT22;51453;47.738;7.420;2024-03-02T06:50:44;5.40;99.90
64939;DHT22;51453;47.738;7.420;2024-03-02T06:53:09;5.40;99.90
64939;DHT22;51453;47.738;7.420;2024-03-02T06:55:35;5.40;99.90
64939;DHT22;51453;47.738;7.420;2024-03-02T06:58:00;5.50;99.90
64939;DHT22;51453;47.738;7.420;2024-03-02T07:00:26;5.40;99.90
64939;DHT22;51453;47.738;7.420;2024-03-02T07:02:52;5.50;99.90
64939;DHT22;51453;47.738;7.420;2024-03-02T07:05:17;5.60;99.90
64939;DHT22;51453;47.738;7.420;2024-03-02T07:07:43;5.50;99.90
64939;DHT22;51453;47.738;7.420;2024-03-02T07:10:09;5.50;99.90
64939;DHT22;51453;47.738;7.420;2024-03-02T07:12:34;5.60;99.90
64939;DHT22;51453;47.738;7.420;2024-03-02T07:15:00;5.50;99.90
64939;DHT22;51453;47.738;7.420;2024-03-02T07:17:29;5.50;99.90
64939;DHT22;51453;47.738;7.420;2024-03-02T07:19:54;5.50;99.90
64939;DHT22;51453;47.738;7.420;2024-03-02T07:22:20;5.60;99.90
64939;DHT22;51453;47.738;7.420;2024-03-02T07:24:46;5.70;99.90
64939;DHT22;51453;47.738;7.420;2024-03-02T07:27:12;5.80;99.90
64939;DHT22;51453;47.738;7.420;2024-03-02T07:29:39;5.80;99.90
64939;DHT22;51453;47.738;7.420;2024-03-02T07:32:06;5.90;99.90
64939;DHT22;51453;47.738;7.420;2024-03-02T07:34:31;6.00;99.90
64939;DHT22;51453;47.738;7.420;2024-03-02T07:36:57;6.10;99.90
64939;DHT22;51453;47.738;7.420;2024-03-02T07:39:24;6.20;99.90
64939;DHT22;51453;47.738;7.420;2024-03-02T07:41:49;6.20;99.90
64939;DHT22;51453;47.738;7.420;2024-03-02T07:44:15;6.30;99.90
64939;DHT22;51453;47.738;7.420;2024-03-02T07:46:42;6.40;99.90
64939;DHT22;51453;47.738;7.420;2024-03-02T07:49:08;6.50;99.90
64939;DHT22;51453;47.738;7.420;2024-03-02T07:51:34;6.60;99.90
64939;DHT22;51453;47.738;7.420;2024-03-02T07:54:00;6.70;99.90
64939;DHT22;51453;47.738;7.420;2024-03-02T07:56:26;6.80;99.90
64939;DHT22;51453;47.738;7.420;2024-03-02T07:58:52;6.90;99.90
64939;DHT22;51453;47.738;7.420;2024-03-02T08:01:17;7.00;99.90
64939;DHT22;51453;47.738;7.420;2024-03-02T08:03:43;7.20;99.90
64939;DHT22;51453;47.738;7.420;2024-03-02T08:06:17;7.20;99.90
64939;DHT22;51453;47.738;7.420;2024-03-02T08:08:42;7.20;99.90
64939;DHT22;51453;47.738;7.420;2024-03-02T08:11:08;7.30;99.90
64939;DHT22;51453;47.738;7.420;2024-03-02T08:13:34;7.40;99.90
64939;DHT22;51453;47.738;7.420;2024-03-02T08:16:00;7.50;99.90
64939;DHT22;51453;47.738;7.420;2024-03-02T08:18:28;7.70;99.90
64939;DHT22;51453;47.738;7.420;2024-03-02T08:20:54;7.70;99.90
64939;DHT22;51453;47.738;7.420;2024-03-02T08:23:20;7.80;99.90
64939;DHT22;51453;47.738;7.420;2024-03-02T08:25:46;7.90;99.90
64939;DHT22;51453;47.738;7.420;2024-03-02T08:28:12;7.90;99.90
64939;DHT22;51453;47.738;7.420;2024-03-02T08:30:38;8.00;99.90
64939;DHT22;51453;47.738;7.420;2024-03-02T08:33:04;8.10;99.90
64939;DHT22;51453;47.738;7.420;2024-03-02T08:35:29;8.30;99.90
64939;DHT22;51453;47.738;7.420;2024-03-02T08:37:57;8.40;99.90
64939;DHT22;51453;47.738;7.420;2024-03-02T08:40:23;8.50;99.90
64939;DHT22;51453;47.738;7.420;2024-03-02T08:42:48;8.70;99.90
64939;DHT22;51453;47.738;7.420;2024-03-02T08:45:14;8.80;99.90
64939;DHT22;51453;47.738;7.420;2024-03-02T08:47:40;8.90;99.90
64939;DHT22;51453;47.738;7.420;2024-03-02T08:50:06;8.90;99.90
64939;DHT22;51453;47.738;7.420;2024-03-02T08:52:32;9.00;99.90
64939;DHT22;51453;47.738;7.420;2024-03-02T08:54:57;9.10;99.90
64939;DHT22;51453;47.738;7.420;2024-03-02T08:57:23;9.20;99.90
64939;DHT22;51453;47.738;7.420;2024-03-02T08:59:49;9.10;99.90
64939;DHT22;51453;47.738;7.420;2024-03-02T09:02:14;9.10;99.90
64939;DHT22;51453;47.738;7.420;2024-03-02T09:04:40;9.00;99.90
64939;DHT22;51453;47.738;7.420;2024-03-02T09:07:06;9.00;99.90
64939;DHT22;51453;47.738;7.420;2024-03-02T09:09:33;9.20;99.90
64939;DHT22;51453;47.738;7.420;2024-03-02T09:11:58;9.40;99.90
64939;DHT22;51453;47.738;7.420;2024-03-02T09:14:24;9.50;99.90
64939;DHT22;51453;47.738;7.420;2024-03-02T09:16:50;9.50;99.90
64939;DHT22;51453;47.738;7.420;2024-03-02T09:19:15;9.70;99.90
64939;DHT22;51453;47.738;7.420;2024-03-02T09:21:42;9.70;99.90
64939;DHT22;51453;47.738;7.420;2024-03-02T09:24:09;9.70;99.90
64939;DHT22;51453;47.738;7.420;2024-03-02T09:26:35;9.80;99.90
64939;DHT22;51453;47.738;7.420;2024-03-02T09:29:01;9.90;99.90
64939;DHT22;51453;47.738;7.420;2024-03-02T09:31:26;10.00;99.90
64939;DHT22;51453;47.738;7.420;2024-03-02T09:33:52;9.90;99.90
64939;DHT22;51453;47.738;7.420;2024-03-02T09:36:19;10.00;99.90
64939;DHT22;51453;47.738;7.420;2024-03-02T09:38:45;9.90;99.90
64939;DHT22;51453;47.738;7.420;2024-03-02T09:41:10;10.10;99.90
64939;DHT22;51453;47.738;7.420;2024-03-02T09:43:37;10.20;99.90
64939;DHT22;51453;47.738;7.420;2024-03-02T09:46:03;10.20;99.90
64939;DHT22;51453;47.738;7.420;2024-03-02T09:48:29;10.20;99.90
64939;DHT22;51453;47.738;7.420;2024-03-02T09:50:55;10.20;99.90
64939;DHT22;51453;47.738;7.420;2024-03-02T09:53:22;10.20;99.90
64939;DHT22;51453;47.738;7.420;2024-03-02T09:55:47;10.20;99.90
64939;DHT22;51453;47.738;7.420;2024-03-02T09:58:13;10.30;99.90
64939;DHT22;51453;47.738;7.420;2024-03-02T10:00:39;10.60;99.90
64939;DHT22;51453;47.738;7.420;2024-03-02T10:03:05;10.60;99.90
64939;DHT22;51453;47.738;7.420;2024-03-02T10:05:31;10.70;99.90
64939;DHT22;51453;47.738;7.420;2024-03-02T10:08:01;10.70;99.90
64939;DHT22;51453;47.738;7.420;2024-03-02T10:10:40;10.90;99.90
64939;DHT22;51453;47.738;7.420;2024-03-02T10:13:15;10.90;99.90
64939;DHT22;51453;47.738;7.420;2024-03-02T10:15:41;11.00;99.90
64939;DHT22;51453;47.738;7.420;2024-03-02T10:18:11;11.20;99.90
64939;DHT22;51453;47.738;7.420;2024-03-02T10:20:37;11.30;99.90
64939;DHT22;51453;47.738;7.420;2024-03-02T10:23:13;11.30;99.90
64939;DHT22;51453;47.738;7.420;2024-03-02T10:25:39;11.40;99.90
64939;DHT22;51453;47.738;7.420;2024-03-02T10:28:05;11.50;99.90
64939;DHT22;51453;47.738;7.420;2024-03-02T10:30:32;11.50;99.90
64939;DHT22;51453;47.738;7.420;2024-03-02T10:32:58;11.60;99.90
64939;DHT22;51453;47.738;7.420;2024-03-02T10:35:23;11.60;99.90
64939;DHT22;51453;47.738;7.420;2024-03-02T10:37:52;11.60;99.90
64939;DHT22;51453;47.738;7.420;2024-03-02T10:40:18;11.70;99.90
64939;DHT22;51453;47.738;7.420;2024-03-02T10:42:47;11.70;99.90
64939;DHT22;51453;47.738;7.420;2024-03-02T10:45:16;11.80;99.90
64939;DHT22;51453;47.738;7.420;2024-03-02T10:47:43;11.90;99.90
64939;DHT22;51453;47.738;7.420;2024-03-02T10:50:10;12.00;99.90
64939;DHT22;51453;47.738;7.420;2024-03-02T10:52:36;12.00;99.90
64939;DHT22;51453;47.738;7.420;2024-03-02T10:55:02;12.10;99.90
64939;DHT22;51453;47.738;7.420;2024-03-02T10:57:49;12.10;99.90
64939;DHT22;51453;47.738;7.420;2024-03-02T11:00:15;12.20;99.90
64939;DHT22;51453;47.738;7.420;2024-03-02T11:02:51;12.40;99.90
64939;DHT22;51453;47.738;7.420;2024-03-02T11:07:53;12.50;99.90
64939;DHT22;51453;47.738;7.420;2024-03-02T11:10:22;12.50;99.90
64939;DHT22;51453;47.738;7.420;2024-03-02T11:12:56;12.60;99.90
64939;DHT22;51453;47.738;7.420;2024-03-02T11:15:25;12.70;99.90
64939;DHT22;51453;47.738;7.420;2024-03-02T11:17:52;12.70;99.90
64939;DHT22;51453;47.738;7.420;2024-03-02T11:20:18;12.70;99.90
64939;DHT22;51453;47.738;7.420;2024-03-02T11:22:45;12.90;99.90
64939;DHT22;51453;47.738;7.420;2024-03-02T11:25:27;13.00;99.90
64939;DHT22;51453;47.738;7.420;2024-03-02T11:33:03;13.20;99.90
64939;DHT22;51453;47.738;7.420;2024-03-02T11:35:35;13.20;99.90
64939;DHT22;51453;47.738;7.420;2024-03-02T11:38:02;13.20;99.90
64939;DHT22;51453;47.738;7.420;2024-03-02T11:40:29;13.20;99.90
64939;DHT22;51453;47.738;7.420;2024-03-02T11:42:59;13.20;99.90
64939;DHT22;51453;47.738;7.420;2024-03-02T11:45:26;13.30;99.90
64939;DHT22;51453;47.738;7.420;2024-03-02T11:47:58;13.40;99.90
64939;DHT22;51453;47.738;7.420;2024-03-02T11:50:34;13.60;99.90
64939;DHT22;51453;47.738;7.420;2024-03-02T11:53:07;13.70;99.90
64939;DHT22;51453;47.738;7.420;2024-03-02T11:55:37;13.90;99.90
64939;DHT22;51453;47.738;7.420;2024-03-02T11:58:07;13.90;99.90
64939;DHT22;51453;47.738;7.420;2024-03-02T12:00:33;14.00;99.90
64939;DHT22;51453;47.738;7.420;2024-03-02T12:03:04;14.10;99.90
64939;DHT22;51453;47.738;7.420;2024-03-02T12:05:31;14.30;99.90
64939;DHT22;51453;47.738;7.420;2024-03-02T12:08:07;14.60;99.90
64939;DHT22;51453;47.738;7.420;2024-03-02T12:10:34;14.90;99.90
64939;DHT22;51453;47.738;7.420;2024-03-02T12:13:05;15.00;99.90
64939;DHT22;51453;47.738;7.420;2024-03-02T12:15:36;15.00;99.90
64939;DHT22;51453;47.738;7.420;2024-03-02T12:18:06;14.80;99.90
64939;DHT22;51453;47.738;7.420;2024-03-02T12:20:33;14.60;99.90
64939;DHT22;51453;47.738;7.420;2024-03-02T12:23:00;14.50;99.90
64939;DHT22;51453;47.738;7.420;2024-03-02T12:25:26;14.30;99.90
64939;DHT22;51453;47.738;7.420;2024-03-02T12:27:57;14.20;99.90
64939;DHT22;51453;47.738;7.420;2024-03-02T12:30:23;14.20;99.90
64939;DHT22;51453;47.738;7.420;2024-03-02T12:32:49;14.10;99.90
64939;DHT22;51453;47.738;7.420;2024-03-02T12:35:15;14.00;99.90
64939;DHT22;51453;47.738;7.420;2024-03-02T12:37:44;14.10;99.90
64939;DHT22;51453;47.738;7.420;2024-03-02T12:40:11;14.20;99.90
64939;DHT22;51453;47.738;7.420;2024-03-02T12:42:38;14.30;99.90
64939;DHT22;51453;47.738;7.420;2024-03-02T12:45:05;14.30;99.90
64939;DHT22;51453;47.738;7.420;2024-03-02T12:47:30;14.30;99.90
64939;DHT22;51453;47.738;7.420;2024-03-02T12:49:56;14.30;99.90
64939;DHT22;51453;47.738;7.420;2024-03-02T12:52:22;14.20;99.90
64939;DHT22;51453;47.738;7.420;2024-03-02T12:54:49;14.20;99.90
64939;DHT22;51453;47.738;7.420;2024-03-02T12:57:19;14.20;99.90
64939;DHT22;51453;47.738;7.420;2024-03-02T12:59:47;14.20;99.90
64939;DHT22;51453;47.738;7.420;2024-03-02T13:02:19;14.30;99.90
64939;DHT22;51453;47.738;7.420;2024-03-02T13:04:52;14.30;99.90
64939;DHT22;51453;47.738;7.420;2024-03-02T13:07:20;14.30;99.90
64939;DHT22;51453;47.738;7.420;2024-03-02T13:09:46;14.30;99.90
64939;DHT22;51453;47.738;7.420;2024-03-02T13:12:11;14.40;99.90
64939;DHT22;51453;47.738;7.420;2024-03-02T13:14:37;14.50;99.90
64939;DHT22;51453;47.738;7.420;2024-03-02T13:17:03;14.40;99.90
64939;DHT22;51453;47.738;7.420;2024-03-02T13:19:31;14.50;99.90
64939;DHT22;51453;47.738;7.420;2024-03-02T13:21:57;14.70;99.90
64939;DHT22;51453;47.738;7.420;2024-03-02T13:24:23;14.80;99.90
64939;DHT22;51453;47.738;7.420;2024-03-02T13:26:55;14.80;99.90
64939;DHT22;51453;47.738;7.420;2024-03-02T13:29:22;14.80;99.90
64939;DHT22;51453;47.738;7.420;2024-03-02T13:31:48;14.90;99.90
64939;DHT22;51453;47.738;7.420;2024-03-02T13:34:14;15.00;99.90
64939;DHT22;51453;47.738;7.420;2024-03-02T13:36:39;14.90;99.90
64939;DHT22;51453;47.738;7.420;2024-03-02T13:39:05;14.90;99.90
64939;DHT22;51453;47.738;7.420;2024-03-02T13:41:34;14.90;99.90
64939;DHT22;51453;47.738;7.420;2024-03-02T13:44:00;14.70;99.90
64939;DHT22;51453;47.738;7.420;2024-03-02T13:46:27;14.50;99.90
64939;DHT22;51453;47.738;7.420;2024-03-02T13:48:54;14.40;99.90
64939;DHT22;51453;47.738;7.420;2024-03-02T13:51:20;14.40;99.90
64939;DHT22;51453;47.738;7.420;2024-03-02T13:53:45;14.30;99.90
64939;DHT22;51453;47.738;7.420;2024-03-02T13:56:11;14.30;99.90
64939;DHT22;51453;47.738;7.420;2024-03-02T13:58:37;14.50;99.90
64939;DHT22;51453;47.738;7.420;2024-03-02T14:01:04;14.40;99.90
64939;DHT22;51453;47.738;7.420;2024-03-02T14:03:30;14.30;99.90
64939;DHT22;51453;47.738;7.420;2024-03-02T14:05:55;14.20;99.90
64939;DHT22;51453;47.738;7.420;2024-03-02T14:08:21;14.20;99.90
64939;DHT22;51453;47.738;7.420;2024-03-02T14:10:47;14.10;99.90
64939;DHT22;51453;47.738;7.420;2024-03-02T14:13:12;14.00;99.90
64939;DHT22;51453;47.738;7.420;2024-03-02T14:15:38;14.00;99.90
64939;DHT22;51453;47.738;7.420;2024-03-02T14:18:05;13.90;99.90
64939;DHT22;51453;47.738;7.420;2024-03-02T14:20:31;13.90;99.90
64939;DHT22;51453;47.738;7.420;2024-03-02T14:22:58;13.90;99.90
64939;DHT22;51453;47.738;7.420;2024-03-02T14:25:25;13.80;99.90
64939;DHT22;51453;47.738;7.420;2024-03-02T14:27:50;13.80;99.90
64939;DHT22;51453;47.738;7.420;2024-03-02T14:30:16;13.70;99.90
64939;DHT22;51453;47.738;7.420;2024-03-02T14:32:42;13.80;99.90
64939;DHT22;51453;47.738;7.420;2024-03-02T14:35:08;13.80;99.90
64939;DHT22;51453;47.738;7.420;2024-03-02T14:37:37;13.70;99.90
64939;DHT22;51453;47.738;7.420;2024-03-02T14:40:03;13.70;99.90
64939;DHT22;51453;47.738;7.420;2024-03-02T14:42:32;13.70;99.90
64939;DHT22;51453;47.738;7.420;2024-03-02T14:44:57;13.70;99.90
64939;DHT22;51453;47.738;7.420;2024-03-02T14:47:23;13.80;99.90
64939;DHT22;51453;47.738;7.420;2024-03-02T14:49:50;13.80;99.90
64939;DHT22;51453;47.738;7.420;2024-03-02T14:52:16;13.90;99.90
64939;DHT22;51453;47.738;7.420;2024-03-02T14:54:44;14.10;99.90
64939;DHT22;51453;47.738;7.420;2024-03-02T14:57:09;14.20;99.90
64939;DHT22;51453;47.738;7.420;2024-03-02T14:59:36;14.40;99.90
64939;DHT22;51453;47.738;7.420;2024-03-02T15:02:03;14.70;99.90
64939;DHT22;51453;47.738;7.420;2024-03-02T15:04:28;14.80;99.90
64939;DHT22;51453;47.738;7.420;2024-03-02T15:06:54;14.90;99.90
64939;DHT22;51453;47.738;7.420;2024-03-02T15:09:20;14.80;99.90
64939;DHT22;51453;47.738;7.420;2024-03-02T15:11:45;14.70;99.90
64939;DHT22;51453;47.738;7.420;2024-03-02T15:14:11;14.60;99.90
64939;DHT22;51453;47.738;7.420;2024-03-02T15:16:37;14.40;99.90
64939;DHT22;51453;47.738;7.420;2024-03-02T15:19:02;14.30;99.90
64939;DHT22;51453;47.738;7.420;2024-03-02T15:21:28;14.20;99.90
64939;DHT22;51453;47.738;7.420;2024-03-02T15:23:54;14.10;99.90
64939;DHT22;51453;47.738;7.420;2024-03-02T15:26:20;14.00;99.90
64939;DHT22;51453;47.738;7.420;2024-03-02T15:28:45;14.00;99.90
64939;DHT22;51453;47.738;7.420;2024-03-02T15:31:11;14.00;99.90
64939;DHT22;51453;47.738;7.420;2024-03-02T15:33:37;14.10;99.90
64939;DHT22;51453;47.738;7.420;2024-03-02T15:36:02;14.00;99.90
64939;DHT22;51453;47.738;7.420;2024-03-02T15:38:29;14.00;99.90
64939;DHT22;51453;47.738;7.420;2024-03-02T15:40:54;14.00;99.90
64939;DHT22;51453;47.738;7.420;2024-03-02T15:43:20;14.00;99.90
64939;DHT22;51453;47.738;7.420;2024-03-02T15:45:45;13.90;99.90
64939;DHT22;51453;47.738;7.420;2024-03-02T15:48:12;14.00;99.90
64939;DHT22;51453;47.738;7.420;2024-03-02T15:50:37;14.00;99.90
64939;DHT22;51453;47.738;7.420;2024-03-02T15:53:03;13.90;99.90
64939;DHT22;51453;47.738;7.420;2024-03-02T15:55:32;13.90;99.90
64939;DHT22;51453;47.738;7.420;2024-03-02T15:58:00;13.80;99.90
64939;DHT22;51453;47.738;7.420;2024-03-02T16:00:26;13.80;99.90
64939;DHT22;51453;47.738;7.420;2024-03-02T16:02:51;13.90;99.90
64939;DHT22;51453;47.738;7.420;2024-03-02T16:05:17;13.90;99.90
64939;DHT22;51453;47.738;7.420;2024-03-02T16:07:43;13.90;99.90
64939;DHT22;51453;47.738;7.420;2024-03-02T16:10:09;13.80;99.90
64939;DHT22;51453;47.738;7.420;2024-03-02T16:12:35;13.80;99.90